Time;durP1;ratioP1;P1;durP2;ratioP2;P2;SDS_P1;SDS_P2;PMS_P1;PMS_P2;Temp;Humidity;BMP_temperature;BMP_pressure;BME280_temperature;BME280_humidity;BME280_pressure;Samples;Min_cycle;Max_cycle;Signal;HPM_P1;HPM_P2
2022/04/25 00:01:15;;;;;;;6.38;5.78;;;20.00;47.90;;;;;;5014608;28;20224;-65
2022/04/25 00:03:43;;;;;;;6.88;5.70;;;20.00;47.90;;;;;;5016058;28;20204;-66
2022/04/25 00:06:11;;;;;;;6.15;5.55;;;19.90;47.80;;;;;;5014587;28;20243;-65
2022/04/25 00:08:38;;;;;;;6.15;5.57;;;19.90;47.80;;;;;;5014692;28;20201;-66
2022/04/25 00:11:05;;;;;;;7.55;6.10;;;19.90;47.90;;;;;;5014509;28;20240;-66
2022/04/25 00:13:33;;;;;;;6.00;5.30;;;19.90;47.90;;;;;;5015903;28;20607;-66
2022/04/25 00:16:00;;;;;;;6.45;5.85;;;19.90;47.90;;;;;;5014641;28;20203;-65
2022/04/25 00:18:27;;;;;;;5.90;5.40;;;19.90;47.90;;;;;;5014646;28;20204;-66
2022/04/25 00:20:55;;;;;;;6.28;5.60;;;19.90;47.90;;;;;;5015621;28;20217;-65
2022/04/25 00:23:24;;;;;;;5.90;5.40;;;19.90;47.90;;;;;;5025626;28;20247;-65
2022/04/25 00:25:51;;;;;;;6.22;5.38;;;19.90;47.90;;;;;;5019482;28;20195;-66
2022/04/25 00:28:18;;;;;;;6.55;5.90;;;19.90;47.90;;;;;;5014416;28;20201;-66
2022/04/25 00:30:47;;;;;;;6.97;5.32;;;19.90;48.00;;;;;;5015098;28;20669;-66
2022/04/25 00:33:14;;;;;;;5.47;4.97;;;19.90;47.90;;;;;;5015529;28;20205;-66
2022/04/25 00:35:41;;;;;;;6.13;5.13;;;19.90;47.90;;;;;;5016301;28;20204;-66
2022/04/25 00:38:08;;;;;;;5.35;4.85;;;19.90;47.90;;;;;;5014860;28;20200;-66
2022/04/25 00:40:37;;;;;;;5.72;5.22;;;19.90;48.00;;;;;;5014393;28;20205;-66
2022/04/25 00:43:04;;;;;;;6.07;5.47;;;19.90;48.00;;;;;;5014616;28;20223;-66
2022/04/25 00:45:32;;;;;;;5.82;5.32;;;19.80;48.50;;;;;;5014279;28;20284;-65
2022/04/25 00:47:59;;;;;;;6.25;5.72;;;19.80;47.90;;;;;;5014108;28;20264;-66
2022/04/25 00:50:26;;;;;;;5.80;5.30;;;19.80;48.00;;;;;;5014089;28;20603;-66
2022/04/25 00:52:53;;;;;;;7.18;5.97;;;19.80;48.00;;;;;;5013742;28;20243;-66
2022/04/25 00:55:20;;;;;;;7.32;5.78;;;19.70;47.90;;;;;;5014001;28;20204;-66
2022/04/25 00:57:49;;;;;;;6.28;5.68;;;19.80;48.10;;;;;;5013723;28;20628;-66
2022/04/25 01:00:17;;;;;;;6.05;5.50;;;19.70;47.90;;;;;;5014835;28;20189;-66
2022/04/25 01:02:44;;;;;;;6.28;5.70;;;19.70;48.00;;;;;;5013354;28;20236;-65
2022/04/25 01:05:11;;;;;;;6.10;5.57;;;19.80;48.10;;;;;;5029916;28;20653;-65
2022/04/25 01:07:39;;;;;;;6.65;5.95;;;19.70;48.10;;;;;;5013280;28;20201;-66
2022/04/25 01:10:07;;;;;;;5.78;5.28;;;19.70;48.70;;;;;;5013406;28;20196;-66
2022/04/25 01:12:34;;;;;;;6.40;5.80;;;19.70;48.10;;;;;;5013366;28;20201;-66
2022/04/25 01:15:04;;;;;;;5.90;5.40;;;19.70;48.00;;;;;;5014564;28;20193;-65
2022/04/25 01:17:31;;;;;;;5.95;5.45;;;19.70;48.00;;;;;;5013421;28;20666;-66
2022/04/25 01:19:59;;;;;;;5.55;5.10;;;19.70;48.10;;;;;;5013138;28;20193;-66
2022/04/25 01:22:28;;;;;;;6.22;5.72;;;19.70;48.00;;;;;;5013149;28;20637;-65
2022/04/25 01:27:42;;;;;;;7.15;6.07;;;19.70;47.90;;;;;;5013204;28;20201;-66
2022/04/25 01:30:10;;;;;;;6.28;5.72;;;19.70;47.80;;;;;;5013022;28;20228;-66
2022/04/25 01:32:38;;;;;;;5.80;5.30;;;19.60;47.80;;;;;;5014156;28;20205;-65
2022/04/25 01:35:06;;;;;;;6.00;5.45;;;19.70;47.80;;;;;;5012506;28;20196;-65
2022/04/25 01:37:34;;;;;;;6.15;5.65;;;19.60;47.70;;;;;;5014387;28;20197;-66
2022/04/25 01:40:02;;;;;;;6.38;5.88;;;19.60;47.70;;;;;;5029977;28;20210;-66
2022/04/25 01:42:30;;;;;;;6.38;5.80;;;19.60;47.70;;;;;;5014696;28;20212;-66
2022/04/25 01:44:57;;;;;;;6.63;5.95;;;19.70;47.80;;;;;;5029628;28;20201;-66
2022/04/25 01:47:24;;;;;;;6.50;5.95;;;19.60;47.70;;;;;;5014078;28;20193;-64
2022/04/25 01:49:51;;;;;;;6.53;5.90;;;19.70;47.80;;;;;;5012648;28;20208;-66
2022/04/25 01:52:24;;;;;;;6.47;5.88;;;19.60;47.70;;;;;;5029298;28;20227;-66
2022/04/25 01:54:51;;;;;;;6.45;5.85;;;19.60;47.70;;;;;;5014447;28;20219;-66
2022/04/25 01:57:19;;;;;;;6.28;5.72;;;19.60;47.70;;;;;;5013982;28;20720;-66
2022/04/25 01:59:47;;;;;;;5.97;5.47;;;19.60;47.80;;;;;;5029154;28;20197;-66
2022/04/25 02:02:14;;;;;;;5.70;5.20;;;19.60;47.70;;;;;;5028970;28;20844;-64
2022/04/25 02:04:41;;;;;;;6.72;6.13;;;19.60;47.70;;;;;;5013797;28;20189;-66
2022/04/25 02:07:09;;;;;;;6.50;6.00;;;19.60;47.70;;;;;;5013870;28;20200;-66
2022/04/25 02:09:36;;;;;;;7.00;6.30;;;19.60;47.70;;;;;;5013755;28;20539;-66
2022/04/25 02:12:04;;;;;;;6.28;5.68;;;19.50;47.70;;;;;;5012349;28;20220;-66
2022/04/25 02:14:32;;;;;;;6.30;5.80;;;19.60;47.70;;;;;;5013726;28;20673;-65
2022/04/25 02:17:00;;;;;;;6.05;5.55;;;19.50;47.60;;;;;;5012298;28;20200;-66
2022/04/25 02:19:27;;;;;;;6.40;5.80;;;19.50;47.70;;;;;;5013131;28;20243;-65
2022/04/25 02:21:53;;;;;;;6.75;6.15;;;19.50;47.60;;;;;;5012327;28;20212;-66
2022/04/25 02:24:21;;;;;;;6.72;6.13;;;19.50;47.60;;;;;;5012183;28;20282;-66
2022/04/25 02:26:49;;;;;;;6.80;6.20;;;19.50;47.60;;;;;;5012441;28;20251;-65
2022/04/25 02:29:18;;;;;;;7.00;6.40;;;19.50;47.70;;;;;;5012506;28;20201;-65
2022/04/25 02:31:47;;;;;;;7.07;6.45;;;19.50;47.60;;;;;;5013661;28;20310;-66
2022/04/25 02:34:14;;;;;;;6.85;6.32;;;19.50;47.60;;;;;;5012618;28;20224;-64
2022/04/25 02:36:42;;;;;;;6.93;6.32;;;19.50;47.70;;;;;;5012691;28;20203;-66
2022/04/25 02:39:09;;;;;;;7.07;6.47;;;19.50;47.70;;;;;;5012322;28;20205;-66
2022/04/25 02:41:36;;;;;;;6.10;5.60;;;19.50;47.70;;;;;;5013598;28;20239;-66
2022/04/25 02:44:03;;;;;;;6.40;5.78;;;19.50;47.70;;;;;;5028689;28;20221;-66
2022/04/25 02:46:31;;;;;;;6.57;5.97;;;19.50;47.60;;;;;;5037653;28;20635;-67
2022/04/25 02:48:59;;;;;;;7.03;6.13;;;19.40;47.60;;;;;;5018545;28;20197;-66
2022/04/25 02:51:27;;;;;;;6.38;5.78;;;19.40;47.70;;;;;;5016473;28;20223;-65
2022/04/25 02:53:54;;;;;;;6.82;6.22;;;19.40;47.60;;;;;;5016423;28;20243;-64
2022/04/25 02:56:21;;;;;;;6.28;5.75;;;19.40;47.60;;;;;;5032840;28;20678;-65
2022/04/25 02:58:48;;;;;;;6.45;5.95;;;19.40;47.60;;;;;;5017632;28;20654;-66
2022/04/25 03:01:15;;;;;;;6.88;6.28;;;19.50;47.70;;;;;;5032778;28;20263;-65
2022/04/25 03:03:42;;;;;;;6.80;6.30;;;19.40;47.60;;;;;;5016201;28;20213;-65
2022/04/25 03:06:11;;;;;;;6.30;5.70;;;19.40;48.20;;;;;;5016052;28;20214;-65
2022/04/25 03:08:38;;;;;;;6.80;5.97;;;19.40;47.60;;;;;;5015750;28;20554;-65
2022/04/25 03:11:08;;;;;;;6.97;6.38;;;19.40;47.60;;;;;;5032132;28;20222;-64
2022/04/25 03:13:35;;;;;;;7.00;6.40;;;19.30;47.50;;;;;;5017329;28;20189;-65
2022/04/25 03:16:02;;;;;;;7.28;6.68;;;19.40;47.70;;;;;;5015588;28;20207;-66
2022/04/25 03:18:49;;;;;;;6.18;5.68;;;19.40;47.70;;;;;;5017362;28;20202;-66
2022/04/25 03:21:17;;;;;;;5.82;5.35;;;19.40;47.70;;;;;;5016704;28;20225;-66
2022/04/25 03:23:44;;;;;;;6.50;6.00;;;19.30;47.60;;;;;;5016786;28;20251;-66
2022/04/25 03:26:12;;;;;;;6.60;6.10;;;19.30;47.50;;;;;;5015628;28;20205;-66
2022/04/25 03:28:38;;;;;;;6.60;6.00;;;19.40;47.50;;;;;;5032803;28;20197;-66
2022/04/25 03:31:08;;;;;;;6.25;5.75;;;19.40;47.40;;;;;;5015493;28;20216;-64
2022/04/25 03:33:36;;;;;;;6.32;5.82;;;19.40;47.40;;;;;;5016903;28;20185;-66
2022/04/25 03:36:03;;;;;;;5.70;5.20;;;19.40;47.40;;;;;;5015285;28;20294;-66
2022/04/25 03:38:32;;;;;;;6.60;6.10;;;19.40;47.40;;;;;;5015079;28;20205;-66
2022/04/25 03:40:59;;;;;;;6.90;6.30;;;19.40;47.30;;;;;;5031654;28;20710;-66
2022/04/25 03:43:26;;;;;;;6.63;6.03;;;19.40;47.30;;;;;;5015374;28;20224;-65
2022/04/25 03:45:55;;;;;;;6.80;6.30;;;19.40;47.20;;;;;;5016351;28;20204;-66
2022/04/25 03:48:22;;;;;;;6.13;5.63;;;19.40;47.20;;;;;;5014810;28;20685;-65
2022/04/25 03:50:49;;;;;;;6.15;5.57;;;19.40;47.20;;;;;;5015097;28;20196;-66
2022/04/25 03:53:16;;;;;;;6.90;6.30;;;19.40;47.20;;;;;;5014842;28;20236;-65
2022/04/25 03:58:30;;;;;;;6.75;6.15;;;19.40;47.20;;;;;;5014689;28;20193;-66
2022/04/25 04:00:58;;;;;;;6.30;5.80;;;19.40;47.20;;;;;;5014523;28;20232;-66
2022/04/25 04:03:24;;;;;;;6.32;5.72;;;19.40;47.10;;;;;;5015980;28;20284;-66
2022/04/25 04:05:53;;;;;;;6.53;6.00;;;19.40;47.10;;;;;;5014715;28;20201;-66
2022/04/25 04:08:20;;;;;;;6.47;5.97;;;19.40;47.10;;;;;;5014792;28;20209;-66
2022/04/25 04:10:48;;;;;;;7.47;6.78;;;19.40;47.00;;;;;;5016418;28;20197;-66
2022/04/25 04:13:15;;;;;;;6.75;6.25;;;19.40;47.10;;;;;;5014920;28;20693;-64
2022/04/25 04:15:42;;;;;;;6.60;6.10;;;19.40;47.20;;;;;;5014722;28;20207;-66
2022/04/25 04:18:09;;;;;;;7.22;6.53;;;19.40;47.30;;;;;;5015749;28;20220;-67
2022/04/25 04:20:37;;;;;;;7.00;6.45;;;19.40;47.50;;;;;;5015503;28;20200;-66
2022/04/25 04:23:05;;;;;;;7.25;6.65;;;19.40;47.50;;;;;;5014299;28;20657;-67
2022/04/25 04:25:33;;;;;;;7.20;6.63;;;19.40;47.60;;;;;;5015651;28;20279;-67
2022/04/25 04:28:02;;;;;;;7.95;6.63;;;19.40;47.90;;;;;;5014215;28;20204;-66
2022/04/25 04:30:29;;;;;;;8.18;7.47;;;19.40;47.90;;;;;;5013970;28;20255;-67
2022/04/25 04:32:56;;;;;;;7.40;6.80;;;19.40;48.30;;;;;;5014099;28;20307;-67
2022/04/25 04:38:07;;;;;;;7.80;7.03;;;19.40;48.40;;;;;;5015205;28;20173;-68
2022/04/25 04:40:34;;;;;;;7.88;7.18;;;19.40;49.00;;;;;;5013996;28;20197;-70
2022/04/25 04:43:03;;;;;;;7.90;7.15;;;19.40;49.20;;;;;;5013922;28;20207;-70
2022/04/25 04:45:30;;;;;;;7.53;6.93;;;19.40;49.40;;;;;;5013906;28;20670;-70
2022/04/25 04:47:57;;;;;;;7.25;6.50;;;19.50;49.40;;;;;;5013916;28;20201;-70
2022/04/25 04:50:25;;;;;;;7.25;6.55;;;19.50;49.30;;;;;;5013733;28;20204;-69
2022/04/25 04:52:52;;;;;;;7.50;6.90;;;19.50;49.50;;;;;;5015075;28;20248;-70
2022/04/25 04:58:28;;;;;;;6.20;5.60;;;19.50;48.80;;;;;;4994000;28;20236;-59
2022/04/25 05:00:56;;;;;;;7.25;6.55;;;19.60;48.20;;;;;;4994902;28;20193;-58
2022/04/25 05:03:25;;;;;;;7.18;6.57;;;19.60;47.90;;;;;;4994914;28;20661;-58
2022/04/25 05:05:52;;;;;;;6.68;6.18;;;19.60;47.90;;;;;;4977476;28;20303;-58
2022/04/25 05:08:20;;;;;;;6.97;6.38;;;19.70;47.80;;;;;;4993936;28;20214;-58
2022/04/25 05:10:47;;;;;;;7.40;6.25;;;19.60;48.60;;;;;;4995061;28;20225;-59
2022/04/25 05:13:15;;;;;;;6.70;6.20;;;19.70;47.90;;;;;;4977375;28;20283;-58
2022/04/25 05:15:43;;;;;;;7.10;6.40;;;19.70;47.70;;;;;;4995218;28;20297;-58
2022/04/25 05:18:10;;;;;;;6.97;6.38;;;19.70;47.50;;;;;;4994996;28;20210;-58
2022/04/25 05:20:38;;;;;;;6.95;6.35;;;19.70;47.40;;;;;;4977418;28;20201;-58
2022/04/25 05:23:05;;;;;;;6.25;5.75;;;19.70;47.30;;;;;;4994623;28;20195;-58
2022/04/25 05:25:33;;;;;;;6.72;6.13;;;19.80;47.20;;;;;;4994652;28;20213;-58
2022/04/25 05:28:00;;;;;;;7.07;6.35;;;19.80;47.20;;;;;;4977040;28;20311;-59
2022/04/25 05:30:27;;;;;;;6.95;6.35;;;19.80;47.20;;;;;;4994595;28;20602;-58
2022/04/25 05:32:57;;;;;;;7.20;6.57;;;19.80;47.10;;;;;;4994348;28;20665;-58
2022/04/25 05:35:25;;;;;;;6.95;6.22;;;19.90;47.10;;;;;;4976928;28;20613;-58
2022/04/25 05:37:52;;;;;;;6.82;6.22;;;19.90;46.80;;;;;;4976738;28;20622;-58
2022/04/25 05:40:20;;;;;;;6.75;6.25;;;19.90;46.70;;;;;;4994599;28;20200;-58
2022/04/25 05:42:47;;;;;;;7.07;6.47;;;20.00;46.60;;;;;;4994422;28;20189;-58
2022/04/25 05:45:15;;;;;;;7.72;7.13;;;20.10;46.50;;;;;;4994221;28;20205;-58
2022/04/25 05:47:42;;;;;;;7.07;6.40;;;20.10;46.40;;;;;;4994255;28;20243;-58
2022/04/25 05:52:57;;;;;;;6.65;6.15;;;20.30;46.30;;;;;;4994260;28;20194;-59
2022/04/25 05:55:24;;;;;;;7.32;6.32;;;20.30;46.00;;;;;;4976761;28;20197;-58
2022/04/25 05:57:52;;;;;;;7.60;7.00;;;20.40;46.10;;;;;;4977026;28;20234;-59
2022/04/25 06:00:19;;;;;;;6.68;6.15;;;20.50;46.10;;;;;;4994074;28;20263;-59
2022/04/25 06:02:47;;;;;;;7.60;6.93;;;20.50;45.60;;;;;;4976456;28;20634;-59
2022/04/25 06:05:16;;;;;;;6.20;5.70;;;20.60;45.60;;;;;;4976492;28;20227;-58
2022/04/25 06:07:43;;;;;;;6.68;6.07;;;20.70;45.60;;;;;;4976395;28;20221;-58
2022/04/25 06:10:10;;;;;;;6.55;6.05;;;20.70;45.40;;;;;;4993943;28;20602;-57
2022/04/25 06:12:40;;;;;;;6.05;5.47;;;20.80;45.10;;;;;;4993794;28;20221;-58
2022/04/25 06:15:08;;;;;;;6.53;5.88;;;20.90;45.30;;;;;;4976318;28;20549;-58
2022/04/25 06:17:35;;;;;;;6.53;6.03;;;20.90;45.10;;;;;;4994246;28;20205;-58
2022/04/25 06:20:02;;;;;;;6.65;6.13;;;21.00;45.20;;;;;;4976003;28;20672;-58
2022/04/25 06:22:31;;;;;;;7.03;6.43;;;21.00;45.00;;;;;;4994089;28;20661;-58
2022/04/25 06:24:58;;;;;;;6.15;5.55;;;21.00;44.90;;;;;;4993649;28;20213;-58
2022/04/25 06:27:25;;;;;;;7.05;6.45;;;21.10;44.70;;;;;;4976180;28;20592;-58
2022/04/25 06:29:52;;;;;;;6.85;6.28;;;21.10;44.60;;;;;;4993758;28;20212;-58
2022/04/25 06:32:20;;;;;;;7.65;7.05;;;21.20;44.50;;;;;;4993728;28;20565;-58
2022/04/25 06:34:47;;;;;;;6.47;5.97;;;21.30;44.50;;;;;;4993700;28;20268;-58
2022/04/25 06:37:14;;;;;;;7.82;7.18;;;21.40;44.30;;;;;;4976222;28;20383;-58
2022/04/25 06:39:43;;;;;;;7.18;6.57;;;21.60;44.10;;;;;;4976212;28;20193;-58
2022/04/25 06:42:10;;;;;;;7.35;6.75;;;21.80;43.60;;;;;;4993650;28;20661;-58
2022/04/25 06:44:39;;;;;;;6.38;5.88;;;22.00;43.30;;;;;;4993532;28;20220;-59
2022/04/25 06:47:06;;;;;;;5.70;5.30;;;22.10;43.00;;;;;;4994352;28;20213;-59
2022/04/25 06:49:33;;;;;;;6.90;6.40;;;22.10;42.90;;;;;;4993461;28;20189;-59
2022/04/25 06:52:01;;;;;;;6.43;5.95;;;22.10;42.60;;;;;;4994612;28;20193;-58
2022/04/25 06:54:29;;;;;;;7.60;6.97;;;22.00;42.50;;;;;;4996577;28;20329;-58
2022/04/25 06:56:58;;;;;;;6.72;6.10;;;22.00;42.60;;;;;;4995913;28;20577;-58
2022/04/25 06:59:25;;;;;;;7.47;6.88;;;22.00;42.80;;;;;;4976224;28;20661;-59
2022/04/25 07:01:53;;;;;;;6.70;6.20;;;21.90;42.80;;;;;;4976045;28;20194;-59
2022/04/25 07:04:20;;;;;;;7.00;6.50;;;22.00;42.80;;;;;;4993310;28;20206;-59
2022/04/25 07:06:47;;;;;;;7.10;6.50;;;22.00;42.60;;;;;;4993505;28;20593;-59
2022/04/25 07:09:15;;;;;;;6.80;6.10;;;22.20;42.50;;;;;;4993591;28;20194;-59
2022/04/25 07:11:43;;;;;;;7.43;6.72;;;22.30;42.20;;;;;;4975742;28;20202;-59
2022/04/25 07:14:12;;;;;;;6.00;5.40;;;22.40;41.90;;;;;;4975849;28;20193;-59
2022/04/25 07:16:39;;;;;;;6.53;5.93;;;22.40;41.60;;;;;;4975704;28;20204;-59
2022/04/25 07:19:06;;;;;;;6.53;5.97;;;22.50;41.60;;;;;;4993119;28;20221;-59
2022/04/25 07:29:49;;;;;;;6.03;5.53;;;22.50;42.10;;;;;;4993151;28;20641;-58
2022/04/25 07:32:16;;;;;;;5.60;5.20;;;22.50;41.70;;;;;;4977373;28;20711;-59
2022/04/25 07:34:45;;;;;;;5.43;5.03;;;22.70;42.20;;;;;;4996703;28;20236;-59
2022/04/25 07:37:12;;;;;;;5.60;5.20;;;22.70;41.20;;;;;;4978994;28;20634;-58
2022/04/25 07:39:39;;;;;;;5.47;5.07;;;22.80;41.80;;;;;;4995339;28;20689;-58
2022/04/25 07:42:06;;;;;;;5.28;4.78;;;22.80;41.10;;;;;;4996606;28;20194;-59
2022/04/25 07:44:34;;;;;;;5.43;5.00;;;22.90;40.90;;;;;;4996826;28;20264;-59
2022/04/25 07:47:03;;;;;;;5.30;4.90;;;23.00;40.90;;;;;;4996569;28;20244;-59
2022/04/25 07:49:30;;;;;;;5.40;5.00;;;23.00;40.70;;;;;;4996591;28;20193;-58
2022/04/25 07:51:57;;;;;;;4.90;4.50;;;23.00;40.70;;;;;;4978995;28;20193;-59
2022/04/25 07:54:24;;;;;;;5.35;4.95;;;22.90;40.60;;;;;;4996534;28;20189;-58
2022/04/25 07:56:52;;;;;;;5.20;4.80;;;22.80;40.50;;;;;;4996168;28;20201;-58
2022/04/25 07:59:19;;;;;;;5.05;4.65;;;22.80;41.20;;;;;;4996176;28;20187;-59
2022/04/25 08:01:46;;;;;;;5.25;4.85;;;22.90;40.80;;;;;;4996155;28;20194;-58
2022/04/25 08:04:15;;;;;;;5.15;4.75;;;22.90;40.70;;;;;;4996310;28;20221;-58
2022/04/25 08:06:42;;;;;;;4.43;4.07;;;22.90;40.60;;;;;;4996027;28;20669;-58
2022/04/25 08:09:09;;;;;;;4.55;4.25;;;23.00;40.50;;;;;;4996183;28;20591;-58
2022/04/25 08:11:37;;;;;;;4.60;4.30;;;23.10;40.30;;;;;;4995828;28;20186;-58
2022/04/25 08:19:35;;;;;;;4.55;4.18;;;23.10;40.10;;;;;;4995879;28;20173;-58
2022/04/25 08:22:06;;;;;;;4.10;3.80;;;23.10;40.10;;;;;;4978295;28;20204;-58
2022/04/25 08:24:36;;;;;;;4.70;4.40;;;23.10;40.20;;;;;;4995665;28;20681;-58
2022/04/25 08:27:04;;;;;;;4.63;4.28;;;23.10;40.30;;;;;;4978100;28;20227;-58
2022/04/25 08:29:32;;;;;;;4.78;4.47;;;23.20;40.30;;;;;;4995712;28;20193;-59
2022/04/25 08:31:59;;;;;;;4.78;4.38;;;23.10;40.10;;;;;;4995671;28;20549;-58
2022/04/25 08:34:26;;;;;;;4.70;4.30;;;23.10;40.00;;;;;;4995702;28;20670;-58
2022/04/25 08:36:54;;;;;;;4.85;4.47;;;23.20;40.10;;;;;;4995655;28;20220;-58
2022/04/25 08:39:22;;;;;;;4.55;4.22;;;23.20;40.10;;;;;;4995411;28;20218;-59
2022/04/25 08:41:50;;;;;;;4.68;4.38;;;23.20;40.00;;;;;;4977888;28;20202;-59
2022/04/25 08:44:18;;;;;;;4.40;4.03;;;23.20;40.00;;;;;;4977555;28;20198;-59
2022/04/25 08:46:46;;;;;;;4.72;4.43;;;23.20;40.20;;;;;;4977801;28;20663;-59
2022/04/25 08:49:14;;;;;;;4.70;4.32;;;23.10;40.10;;;;;;4995233;28;20248;-59
2022/04/25 08:51:42;;;;;;;4.63;4.22;;;23.10;40.10;;;;;;4995201;28;20236;-58
2022/04/25 08:54:10;;;;;;;4.90;4.50;;;23.10;40.30;;;;;;4993831;28;20201;-59
2022/04/25 08:56:38;;;;;;;4.82;4.43;;;23.00;40.30;;;;;;4994907;28;20197;-59
2022/04/25 08:59:06;;;;;;;4.82;4.43;;;23.00;40.20;;;;;;4994953;28;20240;-59
2022/04/25 09:01:33;;;;;;;4.82;4.43;;;23.00;40.20;;;;;;4977579;28;20205;-59
2022/04/25 09:04:01;;;;;;;4.55;4.15;;;23.00;40.10;;;;;;4994874;28;20212;-59
2022/04/25 09:06:28;;;;;;;4.70;4.40;;;23.00;40.20;;;;;;4994798;28;20225;-59
2022/04/25 09:08:55;;;;;;;4.50;4.20;;;23.00;40.20;;;;;;4977365;28;20309;-58
2022/04/25 09:14:10;;;;;;;4.38;4.07;;;22.90;40.20;;;;;;4977266;28;20193;-59
2022/04/25 09:16:38;;;;;;;4.22;3.92;;;22.90;40.30;;;;;;4994693;28;20205;-58
2022/04/25 09:19:05;;;;;;;5.13;4.72;;;23.00;40.30;;;;;;4994689;28;20217;-59
2022/04/25 09:21:32;;;;;;;4.20;3.90;;;23.00;40.30;;;;;;4994645;28;20561;-58
2022/04/25 09:24:00;;;;;;;4.35;4.05;;;23.00;40.20;;;;;;4977289;28;20201;-58
2022/04/25 09:26:56;;;;;;;4.30;4.00;;;23.00;40.10;;;;;;4994502;28;20232;-58
2022/04/25 09:29:48;;;;;;;4.25;3.95;;;23.00;40.20;;;;;;4994786;28;20185;-59
2022/04/25 09:32:17;;;;;;;4.40;4.10;;;23.00;40.20;;;;;;4994410;28;20657;-59
2022/04/25 09:35:04;;;;;;;4.63;4.22;;;23.00;40.10;;;;;;4994286;28;20650;-59
2022/04/25 09:37:41;;;;;;;4.70;4.40;;;23.00;40.10;;;;;;4994790;28;20299;-59
2022/04/25 09:40:09;;;;;;;4.45;4.10;;;23.00;40.10;;;;;;4976903;28;20579;-59
2022/04/25 09:42:38;;;;;;;4.60;4.30;;;23.00;40.10;;;;;;4994709;28;20202;-59
2022/04/25 09:45:06;;;;;;;4.60;4.20;;;23.00;40.10;;;;;;4994296;28;20283;-59
2022/04/25 09:47:33;;;;;;;4.90;4.60;;;23.00;40.20;;;;;;4976733;28;20308;-59
2022/04/25 09:50:02;;;;;;;4.85;4.45;;;22.90;40.10;;;;;;4994168;28;20198;-59
2022/04/25 09:52:29;;;;;;;4.38;4.07;;;22.90;40.10;;;;;;4976763;28;20205;-59
2022/04/25 09:54:58;;;;;;;4.28;3.97;;;22.90;40.20;;;;;;4993499;28;20186;-59
2022/04/25 09:57:31;;;;;;;4.50;4.15;;;22.90;40.40;;;;;;4993811;28;20221;-59
2022/04/25 10:00:01;;;;;;;4.63;4.22;;;22.90;40.50;;;;;;4994059;28;20269;-59
2022/04/25 10:02:28;;;;;;;4.40;4.10;;;22.90;40.60;;;;;;4993905;28;20313;-59
2022/04/25 10:04:55;;;;;;;5.13;4.70;;;22.90;40.40;;;;;;4993836;28;20584;-59
2022/04/25 10:07:24;;;;;;;3.95;3.72;;;22.90;40.20;;;;;;4993824;28;20232;-59
2022/04/25 10:09:53;;;;;;;4.13;3.83;;;22.90;40.30;;;;;;4994302;28;20276;-59
2022/04/25 10:12:20;;;;;;;4.53;4.22;;;23.00;40.20;;;;;;4993883;28;20197;-59
2022/04/25 10:14:47;;;;;;;4.90;4.50;;;23.10;40.10;;;;;;4976269;28;20235;-59
2022/04/25 10:17:16;;;;;;;4.35;4.05;;;23.20;39.90;;;;;;4976191;28;20252;-59
2022/04/25 10:19:44;;;;;;;4.40;4.10;;;23.30;39.80;;;;;;4976389;28;20204;-59
2022/04/25 10:22:11;;;;;;;4.50;4.20;;;23.40;39.70;;;;;;4994052;28;20631;-59
2022/04/25 10:24:38;;;;;;;4.22;3.92;;;23.40;39.40;;;;;;4976325;28;20201;-59
2022/04/25 10:27:08;;;;;;;5.05;4.68;;;23.40;39.40;;;;;;4976315;28;20229;-59
2022/04/25 10:29:36;;;;;;;4.20;3.90;;;23.50;39.40;;;;;;4976176;28;20197;-59
2022/04/25 10:32:06;;;;;;;4.57;4.28;;;23.50;39.20;;;;;;4993592;28;20206;-59
2022/04/25 10:34:47;;;;;;;4.30;4.00;;;23.50;39.30;;;;;;4993666;28;20240;-58
2022/04/25 10:37:33;;;;;;;4.20;3.90;;;23.50;39.20;;;;;;4993625;28;20259;-59
2022/04/25 10:40:01;;;;;;;3.60;3.40;;;23.60;39.30;;;;;;4993835;28;20181;-59
2022/04/25 10:45:13;;;;;;;4.55;4.15;;;23.60;39.10;;;;;;4976036;28;20224;-59
2022/04/25 10:48:01;;;;;;;4.45;4.15;;;23.60;39.00;;;;;;4993451;28;20241;-59
2022/04/25 10:50:29;;;;;;;4.30;4.00;;;23.70;39.00;;;;;;4988263;28;20220;-59
2022/04/25 10:53:01;;;;;;;4.00;3.70;;;23.70;39.00;;;;;;4976187;28;20263;-59
2022/04/25 10:55:46;;;;;;;3.85;3.55;;;23.70;39.00;;;;;;4993346;28;20170;-59
2022/04/25 10:58:14;;;;;;;4.43;4.13;;;23.70;39.00;;;;;;5080392;23;20374;-67
2022/04/25 11:00:52;;;;;;;4.05;3.75;;;23.70;38.90;;;;;;5029132;28;20625;-68
2022/04/25 11:03:23;;;;;;;4.05;3.75;;;23.70;39.00;;;;;;5013761;28;20196;-66
2022/04/25 11:05:52;;;;;;;4.18;3.78;;;23.70;38.90;;;;;;5012993;28;20275;-66
2022/04/25 11:08:38;;;;;;;4.15;3.85;;;23.70;38.90;;;;;;5017762;28;20208;-66
2022/04/25 11:11:22;;;;;;;3.92;3.63;;;23.70;38.80;;;;;;5032628;28;20196;-66
2022/04/25 11:14:12;;;;;;;3.92;3.67;;;23.70;38.90;;;;;;5032753;28;20201;-65
2022/04/25 11:16:40;;;;;;;3.83;3.63;;;23.80;39.00;;;;;;5028625;28;20193;-66
2022/04/25 11:19:08;;;;;;;3.95;3.65;;;23.80;38.90;;;;;;5021430;28;20217;-66
2022/04/25 11:21:36;;;;;;;4.00;3.70;;;23.80;38.90;;;;;;5021457;28;20185;-66
2022/04/25 11:24:04;;;;;;;3.70;3.50;;;23.80;38.90;;;;;;5015788;28;20220;-66
2022/04/25 11:26:57;;;;;;;3.75;3.45;;;23.80;39.00;;;;;;5015572;28;20294;-66
2022/04/25 11:29:24;;;;;;;3.58;3.38;;;23.80;38.90;;;;;;5016740;28;20548;-66
2022/04/25 11:31:51;;;;;;;3.88;3.58;;;23.80;38.80;;;;;;5031747;28;20670;-66
2022/04/25 11:34:22;;;;;;;3.67;3.45;;;23.80;39.40;;;;;;5016608;28;20193;-66
2022/04/25 11:36:50;;;;;;;3.70;3.50;;;23.80;38.80;;;;;;5031957;28;20193;-66
2022/04/25 11:42:02;;;;;;;3.65;3.38;;;23.70;38.80;;;;;;5015395;28;20232;-66
2022/04/25 11:44:29;;;;;;;3.85;3.55;;;23.70;38.80;;;;;;5031716;28;20669;-66
2022/04/25 11:46:57;;;;;;;3.90;3.70;;;23.70;38.90;;;;;;5015724;28;20217;-66
2022/04/25 11:49:28;;;;;;;3.63;3.42;;;23.70;38.90;;;;;;5014743;28;20220;-65
2022/04/25 11:51:58;;;;;;;3.72;3.53;;;23.60;38.80;;;;;;5014884;28;20197;-66
2022/04/25 11:54:25;;;;;;;3.90;3.50;;;23.60;39.60;;;;;;5031466;28;20232;-66
2022/04/25 11:56:53;;;;;;;3.90;3.70;;;23.60;39.00;;;;;;5031166;28;20287;-66
2022/04/25 11:59:20;;;;;;;3.90;3.67;;;23.60;39.10;;;;;;5015892;28;20258;-66
2022/04/25 12:01:48;;;;;;;4.05;3.75;;;23.50;39.60;;;;;;5015911;28;20193;-66
2022/04/25 12:04:17;;;;;;;4.18;3.88;;;23.50;39.10;;;;;;5015876;28;20197;-66
2022/04/25 12:06:48;;;;;;;4.55;4.25;;;23.50;39.30;;;;;;5016148;28;20215;-66
2022/04/25 12:17:41;;;;;;;4.38;4.07;;;23.40;39.60;;;;;;5014061;28;20177;-66
2022/04/25 12:20:09;;;;;;;4.70;4.30;;;23.40;39.80;;;;;;5014457;28;20638;-66
2022/04/25 12:22:37;;;;;;;4.22;3.92;;;23.30;39.80;;;;;;5015852;28;20247;-66
2022/04/25 12:25:16;;;;;;;4.28;3.97;;;23.30;40.00;;;;;;5014526;28;20559;-66
2022/04/25 12:28:03;;;;;;;4.30;4.00;;;23.20;40.00;;;;;;5014192;28;20207;-65
2022/04/25 12:30:30;;;;;;;4.30;4.00;;;23.30;40.30;;;;;;5014092;28;20292;-66
2022/04/25 12:33:08;;;;;;;4.53;4.22;;;23.20;40.40;;;;;;5030595;28;20618;-66
2022/04/25 12:35:36;;;;;;;4.35;4.05;;;23.10;40.40;;;;;;5015272;28;20191;-66
2022/04/25 12:38:03;;;;;;;4.22;3.92;;;23.20;40.70;;;;;;5014123;28;20225;-65
2022/04/25 12:40:32;;;;;;;4.60;4.30;;;23.10;41.20;;;;;;5030479;28;20599;-66
2022/04/25 12:43:00;;;;;;;4.40;4.00;;;23.10;40.90;;;;;;5030659;28;20199;-66
2022/04/25 12:45:27;;;;;;;4.93;4.53;;;23.10;40.80;;;;;;5015407;28;20557;-66
2022/04/25 12:47:55;;;;;;;4.55;4.15;;;23.00;40.90;;;;;;5030428;28;20192;-66
2022/04/25 12:50:40;;;;;;;4.50;4.20;;;23.00;40.90;;;;;;5013903;28;20670;-66
2022/04/25 12:53:07;;;;;;;4.22;3.92;;;23.00;41.00;;;;;;5013987;28;20185;-66
2022/04/25 12:55:46;;;;;;;4.53;4.13;;;23.00;41.10;;;;;;5033348;28;20200;-65
2022/04/25 12:58:13;;;;;;;4.57;4.22;;;23.00;41.20;;;;;;5033153;28;20726;-67
2022/04/25 13:00:41;;;;;;;4.80;4.50;;;23.00;41.40;;;;;;5016422;28;20185;-66
2022/04/25 13:03:09;;;;;;;4.88;4.47;;;22.90;41.20;;;;;;5016552;28;20189;-66
2022/04/25 13:05:36;;;;;;;5.00;4.50;;;22.80;41.20;;;;;;5014681;28;20200;-66
2022/04/25 13:08:03;;;;;;;4.65;4.35;;;22.80;41.40;;;;;;5013993;28;20282;-66
2022/04/25 13:10:30;;;;;;;4.38;4.07;;;22.70;41.60;;;;;;5030426;28;20205;-66
2022/04/25 13:12:59;;;;;;;4.60;4.30;;;22.70;41.80;;;;;;5013824;28;20200;-66
2022/04/25 13:15:26;;;;;;;4.68;4.38;;;22.70;41.60;;;;;;5014841;28;20197;-65
2022/04/25 13:17:54;;;;;;;5.05;4.65;;;22.70;41.50;;;;;;5013361;28;20672;-66
2022/04/25 13:20:22;;;;;;;4.43;4.13;;;22.70;41.40;;;;;;5014654;28;20255;-65
2022/04/25 13:22:50;;;;;;;4.70;4.30;;;22.80;41.40;;;;;;5014637;28;20188;-65
2022/04/25 13:25:18;;;;;;;4.32;4.03;;;22.80;41.30;;;;;;5014495;28;20255;-66
2022/04/25 13:27:46;;;;;;;4.90;4.50;;;22.90;41.20;;;;;;5014557;28;20235;-66
2022/04/25 13:30:16;;;;;;;4.30;4.00;;;22.90;41.10;;;;;;5012105;28;20201;-66
2022/04/25 13:32:44;;;;;;;4.55;4.25;;;23.00;41.20;;;;;;5014641;28;20181;-66
2022/04/25 13:35:12;;;;;;;4.50;4.20;;;23.00;41.10;;;;;;5014285;28;20193;-66
2022/04/25 13:37:38;;;;;;;4.32;4.03;;;23.00;40.90;;;;;;5029251;28;20200;-66
2022/04/25 13:40:07;;;;;;;5.68;4.30;;;23.00;41.00;;;;;;5014102;28;20259;-66